Time;durP1;ratioP1;P1;durP2;ratioP2;P2;SDS_P1;SDS_P2;PMS_P1;PMS_P2;Temp;Humidity;BMP_temperature;BMP_pressure;BME280_temperature;BME280_humidity;BME280_pressure;Samples;Min_cycle;Max_cycle;Signal;HPM_P1;HPM_P2
2023/07/17 00:01:12;;;;;;;1.23;1.00;;;;;;;21.11;52.39;101067.75;5209647;28;20145;-84
2023/07/17 00:04:04;;;;;;;1.10;0.70;;;;;;;21.14;52.83;101054.22;5207846;28;20580;-84
2023/07/17 00:06:54;;;;;;;0.73;0.73;;;;;;;20.72;56.66;101003.56;5206618;28;20032;-85
2023/07/17 00:09:46;;;;;;;0.68;0.68;;;;;;;21.02;55.73;101002.56;5190102;28;20029;-85
2023/07/17 00:12:38;;;;;;;6.68;1.17;;;;;;;20.70;57.13;100992.16;5222725;28;20028;-85
2023/07/17 00:15:28;;;;;;;0.40;0.40;;;;;;;21.01;54.93;101006.16;5191267;28;20158;-85
2023/07/17 00:18:19;;;;;;;0.30;0.30;;;;;;;20.75;58.26;101019.41;5207503;28;20017;-84
2023/07/17 00:21:10;;;;;;;11.70;1.75;;;;;;;20.87;55.16;101024.88;5222506;28;20114;-83
2023/07/17 00:24:01;;;;;;;4.03;0.95;;;;;;;21.09;54.39;101021.66;5205917;28;20559;-85
2023/07/17 00:26:52;;;;;;;0.30;0.30;;;;;;;21.18;55.33;101025.53;5207137;28;20029;-84
2023/07/17 00:29:46;;;;;;;0.25;0.25;;;;;;;21.22;53.59;101017.22;5205933;28;20033;-85
2023/07/17 00:32:36;;;;;;;0.30;0.30;;;;;;;21.24;53.39;101022.44;5242563;28;20033;-84
2023/07/17 00:35:27;;;;;;;1.45;0.50;;;;;;;21.27;54.59;101029.38;5203811;28;20044;-85
2023/07/17 00:38:18;;;;;;;0.20;0.20;;;;;;;21.10;56.88;101044.69;5206253;28;20060;-84
2023/07/17 00:41:09;;;;;;;0.30;0.30;;;;;;;21.09;56.54;101043.00;5206914;28;20037;-85
2023/07/17 00:44:00;;;;;;;0.82;0.82;;;;;;;21.10;55.69;101054.53;5191069;28;20047;-84
2023/07/17 00:46:53;;;;;;;0.47;0.47;;;;;;;20.95;57.93;101059.91;5208922;28;20033;-85
2023/07/17 00:49:45;;;;;;;0.17;0.17;;;;;;;21.04;56.74;101067.31;5189725;28;20476;-85
2023/07/17 00:52:39;;;;;;;0.22;0.22;;;;;;;20.70;59.64;101060.63;5223287;28;20080;-86
2023/07/17 00:55:31;;;;;;;0.30;0.30;;;;;;;20.78;56.75;101065.50;5205281;28;20140;-84
2023/07/17 00:58:22;;;;;;;0.57;0.57;;;;;;;20.88;56.10;101072.81;5213638;28;20028;-85
2023/07/17 01:01:14;;;;;;;0.22;0.22;;;;;;;20.90;55.60;101078.91;5196624;28;20095;-85
2023/07/17 01:04:05;;;;;;;0.40;0.40;;;;;;;20.97;55.27;101084.66;5204807;28;20504;-85
2023/07/17 01:06:56;;;;;;;0.28;0.28;;;;;;;20.95;55.38;101073.22;5207303;28;20401;-84
2023/07/17 01:09:48;;;;;;;0.50;0.40;;;;;;;20.88;54.85;101062.13;5207183;28;20048;-85
2023/07/17 01:12:38;;;;;;;1.10;1.05;;;;;;;20.89;55.95;101047.84;5192077;28;20140;-83
2023/07/17 01:15:29;;;;;;;0.22;0.22;;;;;;;20.71;56.33;101057.00;5205050;28;20220;-85
2023/07/17 01:18:20;;;;;;;0.30;0.30;;;;;;;20.69;55.55;101057.13;5210956;28;20033;-83
2023/07/17 01:21:19;;;;;;;0.20;0.20;;;;;;;20.66;56.56;101051.97;5208665;28;20377;-84
2023/07/17 01:24:10;;;;;;;0.77;0.50;;;;;;;20.67;55.82;101069.69;5220370;28;20047;-84
2023/07/17 01:27:01;;;;;;;0.32;0.32;;;;;;;20.53;56.29;101065.22;5204664;28;20472;-85
2023/07/17 01:29:52;;;;;;;2.97;1.05;;;;;;;20.51;56.68;101071.63;5224894;28;20060;-84
2023/07/17 01:32:42;;;;;;;0.20;0.20;;;;;;;20.09;58.86;101077.72;5194362;28;20021;-84
2023/07/17 01:35:33;;;;;;;0.43;0.43;;;;;;;20.11;58.47;101080.28;5206969;28;20474;-84
2023/07/17 01:38:24;;;;;;;0.20;0.20;;;;;;;20.28;57.52;101079.25;5209160;28;20052;-85
2023/07/17 01:41:15;;;;;;;1.08;0.95;;;;;;;19.96;59.72;101084.75;5213544;28;20105;-84
2023/07/17 01:44:05;;;;;;;0.68;0.68;;;;;;;20.22;57.94;101064.50;5216344;28;20072;-85
2023/07/17 01:46:57;;;;;;;0.28;0.28;;;;;;;20.05;60.17;101060.22;5216411;28;20411;-84
2023/07/17 01:49:47;;;;;;;0.40;0.40;;;;;;;20.04;59.84;101071.81;5211272;28;20408;-85
2023/07/17 01:52:38;;;;;;;0.30;0.30;;;;;;;20.09;58.57;101071.53;5195880;28;20033;-85
2023/07/17 01:55:29;;;;;;;2.17;0.95;;;;;;;19.92;61.53;101064.59;5207895;28;20037;-84
2023/07/17 01:58:20;;;;;;;0.30;0.30;;;;;;;19.92;61.73;101075.25;5194985;28;20028;-84
2023/07/17 02:01:11;;;;;;;0.73;0.73;;;;;;;20.12;59.50;101069.53;5195778;28;20108;-84
2023/07/17 02:04:02;;;;;;;0.77;0.57;;;;;;;19.97;59.69;101081.13;5193546;28;20098;-84
2023/07/17 02:06:53;;;;;;;0.20;0.20;;;;;;;19.88;61.25;101092.34;5214158;28;20371;-84
2023/07/17 02:09:43;;;;;;;0.52;0.52;;;;;;;19.93;59.91;101083.13;5216680;28;20025;-84
2023/07/17 02:12:34;;;;;;;0.20;0.20;;;;;;;19.69;62.12;101088.09;5208504;28;20036;-84
2023/07/17 02:15:25;;;;;;;1.40;0.73;;;;;;;19.94;59.38;101081.34;5192788;28;20166;-84
2023/07/17 02:18:16;;;;;;;1.40;0.82;;;;;;;20.02;59.07;101068.41;5192837;28;20559;-85
2023/07/17 02:21:07;;;;;;;1.17;0.95;;;;;;;20.03;58.21;101064.78;5196128;28;20037;-84
2023/07/17 02:23:57;;;;;;;0.75;0.75;;;;;;;20.00;59.50;101067.63;5207816;28;20057;-84
2023/07/17 02:26:49;;;;;;;0.25;0.25;;;;;;;19.88;60.10;101060.38;5211347;28;20084;-84
2023/07/17 02:29:40;;;;;;;0.20;0.20;;;;;;;19.86;59.14;101051.66;5195231;28;20488;-84
2023/07/17 02:32:31;;;;;;;0.35;0.35;;;;;;;19.98;58.89;101050.88;5209177;28;20566;-85
2023/07/17 02:35:21;;;;;;;0.50;0.50;;;;;;;19.54;60.90;101059.75;5194554;28;20033;-85
2023/07/17 02:38:12;;;;;;;0.40;0.40;;;;;;;19.34;61.75;101062.63;5215310;28;20093;-85
2023/07/17 02:41:03;;;;;;;0.20;0.20;;;;;;;19.13;62.33;101070.03;5220756;28;20051;-85
2023/07/17 02:43:54;;;;;;;0.40;0.40;;;;;;;19.03;62.60;101071.53;5210981;28;20025;-82
2023/07/17 02:46:44;;;;;;;0.10;0.10;;;;;;;18.94;62.89;101074.72;5213069;28;20021;-85
2023/07/17 02:49:37;;;;;;;0.50;0.50;;;;;;;18.71;63.56;101076.84;5210215;28;20039;-85
2023/07/17 02:52:28;;;;;;;0.30;0.30;;;;;;;18.87;62.14;101077.69;5202788;28;20475;-84
2023/07/17 02:55:19;;;;;;;0.20;0.20;;;;;;;18.64;63.01;101078.97;5194986;28;20060;-84
2023/07/17 02:58:10;;;;;;;0.20;0.20;;;;;;;18.66;63.04;101071.78;5214976;28;20039;-85
2023/07/17 03:01:01;;;;;;;0.30;0.30;;;;;;;18.60;63.09;101082.72;5199752;28;20056;-85
2023/07/17 03:03:51;;;;;;;0.30;0.30;;;;;;;18.51;62.99;101088.56;5195848;28;20027;-85
2023/07/17 03:06:43;;;;;;;0.28;0.28;;;;;;;18.02;64.79;101092.91;5195451;28;20047;-84
2023/07/17 03:09:34;;;;;;;0.28;0.28;;;;;;;18.17;64.32;101088.59;5195311;28;20060;-84
2023/07/17 03:12:24;;;;;;;0.20;0.20;;;;;;;18.29;63.67;101084.41;5230959;28;20029;-84
2023/07/17 03:15:15;;;;;;;2.15;0.95;;;;;;;18.15;64.55;101098.41;5212766;28;20886;-85
2023/07/17 03:18:06;;;;;;;0.30;0.30;;;;;;;18.08;64.20;101089.06;5197594;28;20200;-84
2023/07/17 03:20:57;;;;;;;0.20;0.20;;;;;;;18.37;62.97;101089.31;5210418;28;20077;-85
2023/07/17 03:23:48;;;;;;;0.30;0.30;;;;;;;18.44;62.25;101096.00;5194830;28;20029;-85
2023/07/17 03:26:40;;;;;;;0.20;0.20;;;;;;;18.62;62.00;101094.13;5193317;28;20023;-84
2023/07/17 03:29:31;;;;;;;0.45;0.45;;;;;;;18.63;61.31;101103.00;5196782;28;20037;-84
2023/07/17 03:32:22;;;;;;;0.20;0.20;;;;;;;18.62;61.51;101102.13;5212311;28;20028;-86
2023/07/17 03:35:12;;;;;;;0.20;0.20;;;;;;;18.61;61.37;101107.53;5208039;28;20045;-84
2023/07/17 03:38:03;;;;;;;0.70;0.70;;;;;;;18.63;61.48;101109.16;5220091;28;20029;-85
2023/07/17 03:40:56;;;;;;;0.30;0.30;;;;;;;18.66;61.05;101109.00;5196165;28;20045;-84
2023/07/17 03:43:47;;;;;;;0.77;0.77;;;;;;;18.65;61.08;101109.94;5199655;28;20040;-84
2023/07/17 03:46:38;;;;;;;0.63;0.63;;;;;;;18.74;60.68;101121.00;5215393;28;20025;-84
2023/07/17 03:49:29;;;;;;;0.30;0.30;;;;;;;18.49;62.81;101119.69;5227959;28;20120;-84
2023/07/17 03:52:20;;;;;;;0.63;0.60;;;;;;;18.64;61.17;101125.94;5227110;28;20022;-83
2023/07/17 03:55:10;;;;;;;0.20;0.20;;;;;;;18.76;60.25;101127.09;5211054;28;20671;-84
2023/07/17 03:58:03;;;;;;;0.30;0.30;;;;;;;18.82;60.07;101119.63;5209160;28;20041;-84
2023/07/17 04:00:54;;;;;;;0.28;0.28;;;;;;;18.85;59.82;101129.22;5196432;28;20041;-84
2023/07/17 04:03:45;;;;;;;0.35;0.35;;;;;;;18.82;59.87;101132.91;5195190;28;20108;-84
2023/07/17 04:06:36;;;;;;;0.40;0.40;;;;;;;18.75;60.68;101134.19;5211340;28;20025;-84
2023/07/17 04:09:26;;;;;;;1.80;0.47;;;;;;;18.84;60.02;101133.69;5209785;28;20032;-84
2023/07/17 04:12:17;;;;;;;0.30;0.30;;;;;;;18.80;60.38;101137.44;5195285;28;20067;-84
2023/07/17 04:15:09;;;;;;;1.20;0.98;;;;;;;18.86;59.37;101131.81;5192463;28;20041;-84
2023/07/17 04:18:00;;;;;;;0.20;0.20;;;;;;;18.87;59.58;101127.34;5196786;28;20028;-84
2023/07/17 04:20:50;;;;;;;2.17;0.30;;;;;;;18.88;58.93;101134.38;5195650;28;20525;-84
2023/07/17 04:23:41;;;;;;;0.40;0.40;;;;;;;18.86;59.11;101131.81;5207591;28;20071;-85
2023/07/17 04:26:32;;;;;;;0.52;0.52;;;;;;;18.86;58.90;101144.22;5230521;28;20017;-85
2023/07/17 04:29:23;;;;;;;0.22;0.22;;;;;;;18.88;59.00;101147.66;5208009;28;20044;-84
2023/07/17 04:32:14;;;;;;;4.95;1.85;;;;;;;18.95;59.50;101157.03;5209161;28;20035;-83
2023/07/17 04:35:05;;;;;;;0.52;0.52;;;;;;;18.85;60.71;101156.69;5186660;28;20041;-84
2023/07/17 04:37:56;;;;;;;0.20;0.20;;;;;;;18.82;60.17;101159.50;5203454;28;20458;-84
2023/07/17 04:40:47;;;;;;;0.40;0.40;;;;;;;18.56;61.21;101151.13;5206996;28;20249;-84
2023/07/17 04:43:38;;;;;;;0.45;0.45;;;;;;;18.46;62.92;101154.38;5218506;28;20083;-84
2023/07/17 04:46:28;;;;;;;0.40;0.40;;;;;;;18.31;63.87;101169.31;5208444;28;20081;-84
2023/07/17 04:49:19;;;;;;;0.30;0.30;;;;;;;18.01;65.19;101164.66;5201079;28;20100;-83
2023/07/17 04:52:10;;;;;;;1.08;0.82;;;;;;;17.90;65.45;101166.03;5189968;28;20088;-84
2023/07/17 04:55:01;;;;;;;0.25;0.25;;;;;;;17.90;65.54;101175.81;5195795;28;20068;-84
2023/07/17 04:57:51;;;;;;;1.70;1.30;;;;;;;17.99;65.34;101179.81;5228429;28;20033;-84
2023/07/17 05:00:45;;;;;;;0.43;0.43;;;;;;;17.69;66.68;101183.06;5194289;28;20032;-83
2023/07/17 05:03:36;;;;;;;0.55;0.40;;;;;;;17.63;66.53;101181.56;5224498;28;20024;-83
2023/07/17 05:06:29;;;;;;;2.53;1.55;;;;;;;17.73;65.67;101193.44;5227105;28;20040;-83
2023/07/17 05:09:19;;;;;;;0.32;0.32;;;;;;;17.56;67.28;101186.28;5206387;28;20032;-83
2023/07/17 05:12:10;;;;;;;0.28;0.28;;;;;;;17.63;66.51;101194.81;5203876;28;20059;-83
2023/07/17 05:15:01;;;;;;;0.68;0.68;;;;;;;17.53;68.03;101197.06;5209849;28;20071;-83
2023/07/17 05:17:52;;;;;;;0.75;0.75;;;;;;;17.72;66.57;101185.56;5221340;28;20029;-83
2023/07/17 05:20:47;;;;;;;1.20;0.82;;;;;;;17.67;67.01;101195.53;5193163;28;20037;-83
2023/07/17 05:23:38;;;;;;;0.30;0.30;;;;;;;17.95;65.47;101189.69;5191104;28;20124;-83
2023/07/17 05:26:29;;;;;;;8.40;1.70;;;;;;;17.70;67.43;101192.75;5190962;28;20029;-84
2023/07/17 05:29:20;;;;;;;0.30;0.30;;;;;;;17.73;66.86;101192.56;5208007;28;20041;-83
2023/07/17 05:32:10;;;;;;;0.22;0.22;;;;;;;17.48;68.06;101192.94;5193631;28;20025;-84
2023/07/17 05:35:01;;;;;;;0.30;0.30;;;;;;;17.63;67.72;101197.47;5202494;28;20056;-83
2023/07/17 05:37:55;;;;;;;1.73;1.08;;;;;;;17.41;68.25;101198.53;5209151;28;20029;-84
2023/07/17 05:40:46;;;;;;;0.50;0.50;;;;;;;17.58;67.88;101212.78;5190271;28;20041;-83
2023/07/17 05:43:37;;;;;;;0.22;0.22;;;;;;;17.64;67.33;101211.63;5202337;28;20044;-83
2023/07/17 05:46:27;;;;;;;0.45;0.45;;;;;;;17.52;68.62;101211.28;5221842;28;20044;-84
2023/07/17 05:49:18;;;;;;;0.25;0.25;;;;;;;17.78;66.94;101217.09;5207903;28;20508;-84
2023/07/17 05:52:09;;;;;;;0.38;0.38;;;;;;;17.40;69.14;101225.09;5206015;28;20021;-83
2023/07/17 05:55:00;;;;;;;2.40;0.60;;;;;;;17.72;67.98;101225.38;5206306;28;20041;-84
2023/07/17 05:57:51;;;;;;;0.30;0.30;;;;;;;17.49;68.45;101227.31;5206735;28;20056;-84
2023/07/17 06:00:44;;;;;;;0.20;0.20;;;;;;;17.50;68.79;101229.06;5206719;28;20057;-84
2023/07/17 06:03:35;;;;;;;0.20;0.20;;;;;;;17.26;69.05;101224.00;5208251;28;20033;-83
2023/07/17 06:06:26;;;;;;;0.43;0.43;;;;;;;17.42;68.77;101226.78;5222863;28;20052;-84
2023/07/17 06:09:16;;;;;;;0.50;0.50;;;;;;;17.42;69.09;101234.75;5190171;28;20036;-83
2023/07/17 06:12:07;;;;;;;0.20;0.20;;;;;;;17.67;67.44;101235.34;5192266;28;20106;-83
2023/07/17 06:14:58;;;;;;;0.40;0.40;;;;;;;17.73;67.06;101233.25;5206951;28;20096;-83
2023/07/17 06:17:49;;;;;;;0.60;0.60;;;;;;;17.58;68.01;101248.13;5204406;28;20036;-83
2023/07/17 06:20:40;;;;;;;0.43;0.40;;;;;;;17.50;68.77;101244.97;5206306;28;20033;-83
2023/07/17 06:23:30;;;;;;;2.42;0.65;;;;;;;17.50;69.19;101249.44;5203876;28;20029;-83
2023/07/17 06:26:21;;;;;;;0.20;0.20;;;;;;;17.49;68.10;101247.69;5210340;28;20033;-83
2023/07/17 06:29:12;;;;;;;0.65;0.65;;;;;;;17.46;68.76;101254.03;5207751;28;20060;-83
2023/07/17 06:32:03;;;;;;;2.60;1.52;;;;;;;17.48;68.75;101252.13;5200127;28;20051;-83
2023/07/17 06:34:54;;;;;;;0.55;0.55;;;;;;;17.30;69.01;101254.75;5193342;28;20037;-83
2023/07/17 06:37:44;;;;;;;0.40;0.40;;;;;;;17.49;68.39;101253.84;5193866;28;20917;-83
2023/07/17 06:40:37;;;;;;;0.80;0.80;;;;;;;17.57;68.19;101262.31;5230021;28;20041;-84
2023/07/17 06:43:28;;;;;;;0.30;0.30;;;;;;;17.62;68.07;101259.44;5195219;28;20032;-84
2023/07/17 06:46:19;;;;;;;0.40;0.32;;;;;;;17.53;68.61;101265.19;5224926;28;20099;-83
2023/07/17 06:49:10;;;;;;;0.45;0.45;;;;;;;17.46;68.22;101259.31;5214101;28;21015;-83
2023/07/17 06:52:01;;;;;;;0.65;0.65;;;;;;;17.54;67.02;101261.59;5222560;28;20050;-83
2023/07/17 06:54:52;;;;;;;1.00;0.93;;;;;;;17.69;67.33;101265.31;5214086;28;20039;-84
2023/07/17 06:57:42;;;;;;;1.75;0.85;;;;;;;17.76;66.98;101272.03;5194182;28;20028;-83
2023/07/17 07:00:33;;;;;;;0.82;0.82;;;;;;;17.64;66.53;101273.50;5227228;28;20040;-84
2023/07/17 07:03:26;;;;;;;0.85;0.85;;;;;;;17.77;65.76;101273.75;5206409;28;20404;-83
2023/07/17 07:06:17;;;;;;;1.58;0.57;;;;;;;17.85;64.70;101268.94;5212116;28;20059;-83
2023/07/17 07:09:08;;;;;;;1.30;1.10;;;;;;;17.80;65.71;101276.28;5198409;28;20040;-83
2023/07/17 07:11:58;;;;;;;1.73;0.52;;;;;;;17.92;65.26;101273.00;5212115;28;20414;-84
2023/07/17 07:14:49;;;;;;;0.82;0.82;;;;;;;17.98;64.72;101281.63;5195160;28;20508;-85
2023/07/17 07:17:40;;;;;;;0.30;0.30;;;;;;;17.74;64.75;101279.22;5210302;28;20040;-84
2023/07/17 07:20:31;;;;;;;0.20;0.20;;;;;;;17.93;64.33;101281.84;5213575;28;20492;-84
2023/07/17 07:23:21;;;;;;;2.65;1.27;;;;;;;17.82;63.01;101292.97;5204210;28;20225;-83
2023/07/17 07:26:12;;;;;;;1.30;1.20;;;;;;;17.87;63.29;101290.97;5195889;28;20059;-83
2023/07/17 07:29:03;;;;;;;0.85;0.85;;;;;;;17.93;62.51;101295.13;5212578;28;20045;-84
2023/07/17 07:31:54;;;;;;;0.52;0.52;;;;;;;18.01;61.69;101293.00;5215571;28;20577;-84
2023/07/17 07:34:45;;;;;;;0.65;0.47;;;;;;;17.99;62.02;101294.84;5195765;28;20044;-84
2023/07/17 07:37:37;;;;;;;0.30;0.30;;;;;;;18.10;61.72;101299.63;5210729;28;20025;-84
2023/07/17 07:40:28;;;;;;;1.20;1.05;;;;;;;18.20;62.26;101295.59;5213743;28;20569;-84
2023/07/17 07:43:18;;;;;;;1.23;0.90;;;;;;;18.15;60.39;101297.59;5205999;28;20619;-84
2023/07/17 07:46:10;;;;;;;0.63;0.63;;;;;;;18.18;59.39;101302.75;5226754;28;20084;-83
2023/07/17 07:49:00;;;;;;;1.05;0.95;;;;;;;18.12;59.38;101305.72;5194215;28;20043;-83
2023/07/17 07:51:51;;;;;;;0.40;0.40;;;;;;;18.09;60.21;101308.53;5198082;28;20024;-83
2023/07/17 07:54:45;;;;;;;0.38;0.38;;;;;;;18.05;59.99;101301.66;5208060;28;20052;-83
2023/07/17 07:57:36;;;;;;;0.65;0.57;;;;;;;18.21;59.62;101310.59;5194575;28;20033;-82
2023/07/17 08:00:27;;;;;;;1.08;0.85;;;;;;;18.24;59.91;101315.72;5207623;28;20039;-83
2023/07/17 08:03:17;;;;;;;1.58;0.95;;;;;;;18.27;60.23;101309.38;5192763;28;20033;-83
2023/07/17 08:06:09;;;;;;;0.95;0.88;;;;;;;18.39;60.28;101313.22;5205426;28;20120;-84
2023/07/17 08:09:00;;;;;;;0.65;0.65;;;;;;;18.45;59.35;101315.59;5190837;28;20145;-84
2023/07/17 08:11:52;;;;;;;0.40;0.40;;;;;;;18.38;59.32;101320.34;5205856;28;20029;-83
2023/07/17 08:14:43;;;;;;;0.75;0.75;;;;;;;18.54;59.46;101323.09;5208397;28;20049;-83
2023/07/17 08:17:34;;;;;;;0.50;0.50;;;;;;;18.49;58.43;101311.81;5210437;28;20033;-83
2023/07/17 08:20:25;;;;;;;0.63;0.60;;;;;;;18.54;58.32;101317.78;5186892;28;20037;-84
2023/07/17 08:23:25;;;;;;;2.30;1.75;;;;;;;18.55;58.35;101313.31;5190318;28;20569;-84
2023/07/17 08:26:16;;;;;;;0.30;0.30;;;;;;;18.71;59.20;101313.41;5203036;28;20075;-83
2023/07/17 08:29:07;;;;;;;1.55;0.93;;;;;;;18.60;57.54;101318.41;5210598;28;20032;-83
2023/07/17 08:31:58;;;;;;;3.20;1.13;;;;;;;18.63;57.65;101319.09;5226688;28;20025;-83
2023/07/17 08:34:49;;;;;;;1.35;0.68;;;;;;;18.77;58.11;101313.06;5208216;28;20040;-83
2023/07/17 08:37:39;;;;;;;2.72;1.10;;;;;;;18.79;57.97;101311.19;5206639;28;20021;-83
2023/07/17 08:40:33;;;;;;;0.57;0.57;;;;;;;18.76;56.37;101321.13;5193279;28;20040;-83
2023/07/17 08:43:24;;;;;;;1.17;0.63;;;;;;;18.88;56.13;101316.00;5206169;28;20029;-83
2023/07/17 08:46:15;;;;;;;0.75;0.70;;;;;;;18.92;56.01;101318.50;5204951;28;20036;-83
2023/07/17 08:49:06;;;;;;;0.38;0.38;;;;;;;19.03;55.37;101313.53;5189783;28;20044;-83
2023/07/17 08:51:59;;;;;;;1.60;1.50;;;;;;;19.08;55.84;101327.44;5207739;28;20025;-84
2023/07/17 08:54:50;;;;;;;0.70;0.70;;;;;;;19.10;55.21;101324.69;5204815;28;20065;-83
2023/07/17 08:57:41;;;;;;;0.75;0.75;;;;;;;19.16;56.23;101325.22;5207436;28;20021;-83
2023/07/17 09:00:33;;;;;;;8.20;0.77;;;;;;;19.23;56.26;101314.25;5191349;28;20033;-83
2023/07/17 09:03:24;;;;;;;0.40;0.40;;;;;;;19.37;56.11;101311.72;5188910;28;20053;-83
2023/07/17 09:06:24;;;;;;;0.77;0.77;;;;;;;19.35;55.81;101318.91;5200339;28;20118;-84
2023/07/17 09:09:15;;;;;;;0.47;0.47;;;;;;;19.39;56.65;101317.78;5209817;28;20090;-83
2023/07/17 09:12:11;;;;;;;1.25;0.80;;;;;;;19.37;55.86;101319.69;5203970;28;20306;-84
2023/07/17 09:15:02;;;;;;;1.15;0.50;;;;;;;19.46;55.96;101326.28;5205681;28;20049;-83
2023/07/17 09:17:53;;;;;;;0.30;0.30;;;;;;;19.52;55.64;101330.44;5221689;28;20067;-83
2023/07/17 09:20:43;;;;;;;4.50;1.65;;;;;;;19.54;56.05;101333.88;5216534;28;20041;-84
2023/07/17 09:23:39;;;;;;;0.45;0.45;;;;;;;19.63;55.59;101338.66;5203571;28;20037;-83
2023/07/17 09:26:30;;;;;;;0.50;0.50;;;;;;;19.59;54.44;101331.81;5239377;28;20057;-83
2023/07/17 09:29:24;;;;;;;0.30;0.30;;;;;;;19.77;54.98;101330.78;5188156;28;20339;-84
2023/07/17 09:32:18;;;;;;;2.67;1.05;;;;;;;19.81;53.01;101331.47;5199961;28;20519;-83
2023/07/17 09:35:12;;;;;;;2.30;1.38;;;;;;;19.79;53.07;101334.19;5203999;28;20048;-83
2023/07/17 09:38:08;;;;;;;0.47;0.47;;;;;;;19.79;52.77;101336.84;5219300;28;20032;-83
2023/07/17 09:40:59;;;;;;;0.47;0.47;;;;;;;19.80;51.82;101335.91;5223383;28;20493;-83
2023/07/17 09:44:04;;;;;;;1.15;1.05;;;;;;;19.74;52.19;101335.41;5200954;28;20036;-83
2023/07/17 09:46:55;;;;;;;0.52;0.52;;;;;;;19.92;53.49;101330.88;5215609;28;20144;-84
2023/07/17 09:49:48;;;;;;;2.60;1.30;;;;;;;19.80;51.71;101337.72;5186668;28;20203;-83
2023/07/17 09:52:43;;;;;;;2.38;1.40;;;;;;;19.89;52.12;101337.25;5198598;28;20056;-83
2023/07/17 09:55:35;;;;;;;0.55;0.55;;;;;;;19.98;52.04;101338.50;5210065;28;20100;-84
2023/07/17 09:58:30;;;;;;;0.75;0.75;;;;;;;20.00;52.17;101339.28;5188264;28;20021;-84
2023/07/17 10:01:23;;;;;;;0.38;0.38;;;;;;;20.13;52.32;101345.63;5185242;28;20041;-84
2023/07/17 10:04:21;;;;;;;0.93;0.63;;;;;;;20.13;51.66;101340.28;5199821;28;20064;-84
2023/07/17 10:07:14;;;;;;;0.73;0.73;;;;;;;20.21;51.57;101328.31;5222440;28;20100;-84
2023/07/17 10:10:05;;;;;;;0.60;0.60;;;;;;;20.21;51.01;101334.53;5213071;28;20053;-85
2023/07/17 10:12:57;;;;;;;0.68;0.68;;;;;;;20.15;50.36;101339.34;5226656;28;20519;-84
2023/07/17 10:15:48;;;;;;;0.93;0.85;;;;;;;20.17;50.22;101332.97;5210882;28;20044;-85
2023/07/17 10:18:46;;;;;;;2.08;1.70;;;;;;;20.19;50.50;101339.09;5192789;28;20080;-84
2023/07/17 10:22:13;;;;;;;2.35;1.67;;;;;;;20.41;50.89;101333.38;5225151;28;20029;-84
2023/07/17 10:25:19;;;;;;;1.13;0.73;;;;;;;20.45;50.42;101326.88;5187086;28;20037;-84
2023/07/17 10:28:09;;;;;;;0.70;0.35;;;;;;;20.52;49.71;101332.72;5189978;28;20088;-84
2023/07/17 10:31:21;;;;;;;0.47;0.47;;;;;;;20.56;50.48;101328.94;5209793;28;20033;-84
2023/07/17 10:34:11;;;;;;;0.75;0.75;;;;;;;20.67;50.31;101336.28;5201825;28;20106;-85
2023/07/17 10:37:02;;;;;;;0.55;0.45;;;;;;;20.61;50.27;101328.66;5204068;28;20040;-84
2023/07/17 10:40:23;;;;;;;0.60;0.60;;;;;;;20.61;49.41;101326.00;5204846;28;20048;-85
2023/07/17 10:43:19;;;;;;;0.60;0.60;;;;;;;20.62;49.67;101327.69;5206799;28;20166;-84
2023/07/17 10:46:11;;;;;;;0.98;0.88;;;;;;;20.65;50.01;101335.50;5208554;28;20040;-84
2023/07/17 10:49:08;;;;;;;0.63;0.63;;;;;;;20.73;49.59;101327.94;5197955;28;20036;-84
2023/07/17 10:51:59;;;;;;;2.08;0.30;;;;;;;20.68;48.83;101342.47;5197107;28;20056;-83
2023/07/17 10:54:50;;;;;;;0.50;0.50;;;;;;;20.81;49.15;101343.50;5216632;28;20021;-83
2023/07/17 10:57:41;;;;;;;0.30;0.30;;;;;;;20.89;48.04;101340.34;5232537;28;20009;-83
2023/07/17 11:00:33;;;;;;;1.58;0.82;;;;;;;20.85;48.76;101346.84;5218712;28;20021;-84
2023/07/17 11:03:26;;;;;;;0.52;0.52;;;;;;;20.73;48.22;101345.78;5202366;28;20037;-84
2023/07/17 11:06:19;;;;;;;11.35;1.05;;;;;;;20.84;48.27;101337.13;5201985;28;20056;-84
2023/07/17 11:09:09;;;;;;;1.00;0.43;;;;;;;20.90;47.87;101336.72;5205312;28;20036;-86
2023/07/17 11:12:01;;;;;;;3.38;1.45;;;;;;;20.93;47.91;101336.56;5190970;28;20022;-84
2023/07/17 11:14:52;;;;;;;1.55;0.52;;;;;;;20.98;48.88;101337.13;5193084;28;20128;-84
2023/07/17 11:17:45;;;;;;;3.53;1.23;;;;;;;21.02;48.15;101345.78;5190720;28;20059;-83
2023/07/17 11:20:36;;;;;;;1.20;0.90;;;;;;;20.98;48.08;101350.47;5201640;28;20037;-84
2023/07/17 11:23:27;;;;;;;0.80;0.68;;;;;;;20.90;48.74;101332.28;5209101;28;20039;-84
2023/07/17 11:26:28;;;;;;;0.95;0.77;;;;;;;20.79;48.81;101344.50;5210096;28;20073;-83
2023/07/17 11:29:20;;;;;;;1.08;1.00;;;;;;;20.92;49.57;101341.00;5220572;28;20551;-84
2023/07/17 11:32:11;;;;;;;0.55;0.55;;;;;;;21.02;49.11;101344.00;5196636;28;20021;-83
2023/07/17 11:35:02;;;;;;;0.55;0.55;;;;;;;21.09;49.33;101347.13;5192675;28;20512;-83
2023/07/17 11:37:54;;;;;;;0.63;0.63;;;;;;;21.20;49.29;101339.31;5209842;28;20048;-84
2023/07/17 11:40:48;;;;;;;0.85;0.82;;;;;;;21.15;48.48;101341.44;5189736;28;20105;-83
2023/07/17 11:43:39;;;;;;;2.17;1.00;;;;;;;21.26;48.83;101348.75;5197089;28;20036;-84
2023/07/17 11:46:30;;;;;;;3.63;1.33;;;;;;;21.31;48.55;101346.66;5191785;28;20029;-84
2023/07/17 11:49:21;;;;;;;1.00;0.95;;;;;;;21.46;48.55;101343.97;5220853;28;20125;-84
2023/07/17 11:52:19;;;;;;;1.15;1.02;;;;;;;21.73;46.55;101333.38;5192850;28;20036;-84
2023/07/17 11:55:10;;;;;;;4.05;1.02;;;;;;;21.94;46.64;101339.13;5226479;28;20039;-85
2023/07/17 11:58:01;;;;;;;0.60;0.60;;;;;;;21.80;45.75;101337.38;5196566;28;20049;-85
2023/07/17 12:00:56;;;;;;;0.75;0.75;;;;;;;21.96;46.20;101321.19;5210160;28;20025;-84
2023/07/17 12:03:47;;;;;;;0.68;0.68;;;;;;;22.21;45.49;101319.56;5208521;28;20039;-84
2023/07/17 12:06:38;;;;;;;1.58;0.68;;;;;;;22.22;45.60;101331.13;5210839;28;20033;-84
2023/07/17 12:09:29;;;;;;;0.40;0.40;;;;;;;22.26;45.11;101321.91;5208188;28;20067;-83
2023/07/17 12:12:20;;;;;;;1.63;1.15;;;;;;;22.38;44.31;101310.41;5204550;28;20044;-84
2023/07/17 12:15:10;;;;;;;1.23;0.85;;;;;;;22.33;45.48;101313.41;5203538;28;20034;-86
2023/07/17 12:18:01;;;;;;;0.30;0.30;;;;;;;22.35;45.54;101302.59;5209810;28;20043;-83
2023/07/17 12:20:59;;;;;;;0.32;0.32;;;;;;;22.57;44.89;101304.69;5216202;28;20496;-84
2023/07/17 12:23:49;;;;;;;2.25;1.13;;;;;;;22.79;43.38;101292.50;5224974;28;20033;-84
2023/07/17 12:26:41;;;;;;;0.20;0.20;;;;;;;22.91;42.28;101294.31;5210142;28;20017;-84
2023/07/17 12:29:31;;;;;;;2.92;0.75;;;;;;;22.95;43.09;101297.63;5229270;28;20036;-83
2023/07/17 12:32:22;;;;;;;0.57;0.57;;;;;;;23.09;43.09;101294.00;5197331;28;20063;-83
2023/07/17 12:35:13;;;;;;;1.17;0.75;;;;;;;23.16;41.11;101291.72;5208694;28;20049;-85
2023/07/17 12:38:04;;;;;;;1.42;1.27;;;;;;;23.13;41.70;101294.63;5192309;28;20079;-83
2023/07/17 12:40:55;;;;;;;0.40;0.40;;;;;;;22.93;42.09;101284.34;5204896;28;20037;-84
2023/07/17 12:43:46;;;;;;;0.47;0.47;;;;;;;23.19;41.81;101287.03;5211353;28;20277;-84
2023/07/17 12:46:36;;;;;;;2.65;0.63;;;;;;;23.26;41.00;101280.25;5204222;28;20013;-84
2023/07/17 12:49:27;;;;;;;0.95;0.77;;;;;;;23.40;41.51;101281.09;5212160;28;20052;-85
2023/07/17 12:52:18;;;;;;;0.43;0.43;;;;;;;23.62;41.89;101279.50;5219608;28;20067;-83
2023/07/17 12:55:09;;;;;;;0.50;0.50;;;;;;;23.91;40.72;101285.38;5192172;28;20052;-84
2023/07/17 12:58:00;;;;;;;0.40;0.40;;;;;;;23.85;38.50;101291.22;5201995;28;20025;-84
2023/07/17 13:00:50;;;;;;;0.77;0.73;;;;;;;23.87;40.46;101281.25;5205146;28;20048;-85
2023/07/17 13:03:41;;;;;;;0.93;0.88;;;;;;;23.84;39.26;101287.66;5201968;28;20020;-84
2023/07/17 13:06:32;;;;;;;0.70;0.70;;;;;;;23.84;39.27;101290.34;5205286;28;20070;-84
2023/07/17 13:09:24;;;;;;;0.32;0.32;;;;;;;23.82;40.06;101284.25;5189400;28;20045;-85
2023/07/17 13:12:15;;;;;;;0.43;0.43;;;;;;;23.82;39.23;101286.94;5219235;28;20118;-84
2023/07/17 13:15:07;;;;;;;1.58;1.48;;;;;;;23.69;38.85;101275.41;5204369;28;20061;-84
2023/07/17 13:17:58;;;;;;;4.05;1.70;;;;;;;23.88;39.86;101280.28;5208145;28;20041;-84